PWSweather.com
Personal Weather Stations
Station Observations
CARNOUSTIE
Pambride, CarnoustieGB DD7 6DY

PambrideCarnoustieGB DD7 6DY

Lat: 56.50889, Lon: -2.7051

Elevation: 105

Station Type: Oregon Scientific WMR200

www.carnoustieweather.co.uk

High Low Average
Temperature 62.6°F17.0°C 54.3°F12.4°C 57.3°F14.1°C
Dew Point 54.7°F12.6°C 47.6°F8.7°C 50.6°F10.3°C
Winds 12.7 mph 20.4 kmh Calm Calm 6.0 mph E9.7 kmh E
Wind Gusts 16.1 mph25.9 kmh -- 8.0 mph12.9 kmh
Humidity 87% 63% 78%
Pressure 30.06 in1017.9 mb 29.86 in1011.2 mb -
Precipitation 0.38 in9.7 mm - -
Hour Temp Dew Point Humidity Winds Wind Gusts Pressure Precip Precip Rate Daily Precip Total
12:00 AM 57.6°F14.2°C 50.4°F10.2°C 77% 1.2 mph WSW1.9 kmh WSW 1.2 mph1.9 kmh 29.91 in1012.9 mb - 0.03 in0.8 mm 0.03 in0.8 mm
12:10 AM 57.6°F14.2°C 50.4°F10.2°C 77% 2.3 mph W3.7 kmh W 2.3 mph3.7 kmh 29.91 in1012.9 mb - 0.02 in0.5 mm 0.03 in0.8 mm
12:20 AM 57.6°F14.2°C 50.4°F10.2°C 77% Calm Calm -- 29.91 in1012.9 mb - 0.02 in0.5 mm 0.03 in0.8 mm
12:30 AM 57.6°F14.2°C 50.8°F10.4°C 78% Calm Calm -- 29.91 in1012.9 mb - 0.02 in0.5 mm 0.03 in0.8 mm
12:40 AM 57.7°F14.3°C 50.9°F10.5°C 78% Calm Calm -- 29.91 in1012.9 mb - 0.03 in0.8 mm 0.05 in1.3 mm
12:50 AM 57.7°F14.3°C 50.9°F10.5°C 78% Calm Calm -- 29.88 in1011.9 mb - 0.02 in0.5 mm 0.05 in1.3 mm
01:00 AM 57.7°F14.3°C 50.9°F10.5°C 78% 1.2 mph NNE1.9 kmh NNE 2.3 mph3.7 kmh 29.91 in1012.9 mb - 0.02 in0.5 mm 0.05 in1.3 mm
01:10 AM 57.7°F14.3°C 51.3°F10.7°C 79% 2.3 mph NNE3.7 kmh NNE 2.3 mph3.7 kmh 29.91 in1012.9 mb - 0.03 in0.8 mm 0.07 in1.8 mm
01:20 AM 57.7°F14.3°C 51.2°F10.7°C 79% 2.3 mph ENE3.7 kmh ENE 3.5 mph5.6 kmh 29.91 in1012.9 mb - 0.05 in1.3 mm 0.09 in2.3 mm
01:30 AM 57.7°F14.3°C 51.3°F10.7°C 79% 2.3 mph E3.7 kmh E 2.3 mph3.7 kmh 29.91 in1012.9 mb - 0.05 in1.3 mm 0.09 in2.3 mm
01:40 AM 57.7°F14.3°C 51.3°F10.7°C 79% 2.3 mph ENE3.7 kmh ENE 2.3 mph3.7 kmh 29.91 in1012.9 mb - 0.04 in1.0 mm 0.09 in2.3 mm
01:50 AM 57.6°F14.2°C 51.1°F10.6°C 79% 2.3 mph E3.7 kmh E 2.3 mph3.7 kmh 29.91 in1012.9 mb - 0.06 in1.5 mm 0.11 in2.8 mm
02:00 AM 57.6°F14.2°C 51.4°F10.8°C 80% 3.5 mph NNE5.6 kmh NNE 4.6 mph7.4 kmh 29.91 in1012.9 mb - 0.07 in1.8 mm 0.12 in3.0 mm
02:10 AM 57.6°F14.2°C 51.4°F10.8°C 80% 3.5 mph NE5.6 kmh NE 4.6 mph7.4 kmh 29.91 in1012.9 mb - 0.06 in1.5 mm 0.12 in3.0 mm
02:20 AM 57.6°F14.2°C 51.4°F10.8°C 80% 3.5 mph NE5.6 kmh NE 4.6 mph7.4 kmh 29.91 in1012.9 mb - 0.03 in0.8 mm 0.12 in3.0 mm
02:30 AM 57.6°F14.2°C 51.8°F11.0°C 81% 4.6 mph NE7.4 kmh NE 5.8 mph9.3 kmh 29.91 in1012.9 mb - 0.05 in1.3 mm 0.14 in3.6 mm
02:40 AM 57.6°F14.2°C 51.8°F11.0°C 81% 3.5 mph ENE5.6 kmh ENE 3.5 mph5.6 kmh 29.91 in1012.9 mb - 0.05 in1.3 mm 0.14 in3.6 mm
02:50 AM 57.6°F14.2°C 51.8°F11.0°C 81% 3.5 mph NE5.6 kmh NE 5.8 mph9.3 kmh 29.91 in1012.9 mb - 0.03 in0.8 mm 0.14 in3.6 mm
03:00 AM 57.4°F14.1°C 51.6°F10.9°C 81% 4.6 mph NE7.4 kmh NE 5.8 mph9.3 kmh 29.91 in1012.9 mb - 0.03 in0.8 mm 0.14 in3.6 mm
03:10 AM 57.4°F14.1°C 51.9°F11.1°C 82% 3.5 mph ENE5.6 kmh ENE 4.6 mph7.4 kmh 29.91 in1012.9 mb - 0.02 in0.5 mm 0.14 in3.6 mm
03:20 AM 57.4°F14.1°C 51.9°F11.1°C 82% 4.6 mph ENE7.4 kmh ENE 5.8 mph9.3 kmh 29.88 in1011.9 mb - 0.02 in0.5 mm 0.14 in3.6 mm
03:30 AM 57.2°F14.0°C 51.8°F11.0°C 82% 4.6 mph E7.4 kmh E 5.8 mph9.3 kmh 29.88 in1011.9 mb - 0.00 in0.0 mm 0.14 in3.6 mm
03:40 AM 57.2°F14.0°C 51.8°F11.0°C 82% 4.6 mph E7.4 kmh E 8.1 mph13.0 kmh 29.88 in1011.9 mb - 0.00 in0.0 mm 0.14 in3.6 mm
03:50 AM 57.1°F13.9°C 52.0°F11.1°C 83% 6.9 mph ENE11.1 kmh ENE 6.9 mph11.1 kmh 29.88 in1011.9 mb - 0.02 in0.5 mm 0.15 in3.8 mm
04:00 AM 57.0°F13.9°C 52.2°F11.2°C 84% 5.8 mph NE9.3 kmh NE 5.8 mph9.3 kmh 29.88 in1011.9 mb - 0.02 in0.5 mm 0.15 in3.8 mm
04:10 AM 56.8°F13.8°C 52.1°F11.2°C 84% 9.2 mph E14.8 kmh E 11.5 mph18.5 kmh 29.88 in1011.9 mb - 0.03 in0.8 mm 0.17 in4.3 mm
04:20 AM 56.8°F13.8°C 52.0°F11.1°C 84% 8.1 mph NNE13.0 kmh NNE 9.2 mph14.8 kmh 29.88 in1011.9 mb - 0.03 in0.8 mm 0.17 in4.3 mm
04:30 AM 56.5°F13.6°C 52.0°F11.1°C 85% 10.4 mph NE16.7 kmh NE 16.1 mph25.9 kmh 29.86 in1011.2 mb - 0.05 in1.3 mm 0.19 in4.8 mm
04:40 AM 55.6°F13.1°C 50.8°F10.4°C 84% 10.4 mph NE16.7 kmh NE 13.8 mph22.2 kmh 29.86 in1011.2 mb - 0.05 in1.3 mm 0.19 in4.8 mm
04:50 AM 55.2°F12.9°C 50.8°F10.4°C 85% 11.5 mph NE18.5 kmh NE 12.7 mph20.4 kmh 29.86 in1011.2 mb - 0.04 in1.0 mm 0.19 in4.8 mm
05:00 AM 55.0°F12.8°C 50.6°F10.3°C 85% 6.9 mph NE11.1 kmh NE 9.2 mph14.8 kmh 29.86 in1011.2 mb - 0.06 in1.5 mm 0.21 in5.3 mm
05:10 AM 54.9°F12.7°C 50.4°F10.2°C 85% 9.2 mph NE14.8 kmh NE 12.7 mph20.4 kmh 29.86 in1011.2 mb - 0.04 in1.0 mm 0.21 in5.3 mm
05:20 AM 54.9°F12.7°C 50.4°F10.2°C 85% 9.2 mph NE14.8 kmh NE 11.5 mph18.5 kmh 29.86 in1011.2 mb - 0.04 in1.0 mm 0.21 in5.3 mm
05:30 AM 54.9°F12.7°C 50.8°F10.4°C 86% 11.5 mph NE18.5 kmh NE 13.8 mph22.2 kmh 29.86 in1011.2 mb - 0.02 in0.5 mm 0.21 in5.3 mm
05:40 AM 54.7°F12.6°C 50.6°F10.3°C 86% 8.1 mph NE13.0 kmh NE 13.8 mph22.2 kmh 29.86 in1011.2 mb - 0.02 in0.5 mm 0.21 in5.3 mm
05:50 AM 54.5°F12.5°C 50.4°F10.2°C 86% 9.2 mph NNE14.8 kmh NNE 10.4 mph16.7 kmh 29.86 in1011.2 mb - 0.02 in0.5 mm 0.21 in5.3 mm
06:00 AM 54.5°F12.5°C 50.4°F10.2°C 86% 11.5 mph NE18.5 kmh NE 13.8 mph22.2 kmh 29.86 in1011.2 mb - 0.00 in0.0 mm 0.21 in5.3 mm
06:10 AM 54.5°F12.5°C 50.4°F10.2°C 86% 9.2 mph NE14.8 kmh NE 11.5 mph18.5 kmh 29.86 in1011.2 mb - 0.05 in1.3 mm 0.26 in6.6 mm
06:20 AM 54.7°F12.6°C 50.9°F10.5°C 87% 10.4 mph NE16.7 kmh NE 13.8 mph22.2 kmh 29.86 in1011.2 mb - 0.05 in1.3 mm 0.26 in6.6 mm
06:30 AM 54.8°F12.7°C 51.0°F10.6°C 87% 10.4 mph NNE16.7 kmh NNE 10.4 mph16.7 kmh 29.86 in1011.2 mb - 0.05 in1.3 mm 0.26 in6.6 mm
06:40 AM 54.7°F12.6°C 50.9°F10.5°C 87% 8.1 mph NNE13.0 kmh NNE 10.4 mph16.7 kmh 29.86 in1011.2 mb - 0.07 in1.8 mm 0.28 in7.1 mm
06:50 AM 54.9°F12.7°C 51.1°F10.6°C 87% 10.4 mph NE16.7 kmh NE 13.8 mph22.2 kmh 29.86 in1011.2 mb - 0.07 in1.8 mm 0.28 in7.1 mm
07:00 AM 55.0°F12.8°C 51.2°F10.7°C 87% 8.1 mph NE13.0 kmh NE 11.5 mph18.5 kmh 29.88 in1011.9 mb - 0.08 in2.0 mm 0.29 in7.4 mm
07:10 AM 55.2°F12.9°C 51.4°F10.8°C 87% 8.1 mph N13.0 kmh N 10.4 mph16.7 kmh 29.88 in1011.9 mb - 0.03 in0.8 mm 0.29 in7.4 mm
07:20 AM 55.4°F13.0°C 51.6°F10.9°C 87% 10.4 mph NNE16.7 kmh NNE 11.5 mph18.5 kmh 29.88 in1011.9 mb - 0.03 in0.8 mm 0.29 in7.4 mm
07:30 AM 55.4°F13.0°C 51.6°F10.9°C 87% 8.1 mph NE13.0 kmh NE 11.5 mph18.5 kmh 29.88 in1011.9 mb - 0.03 in0.8 mm 0.29 in7.4 mm
07:40 AM 55.9°F13.3°C 52.0°F11.1°C 87% 11.5 mph NNE18.5 kmh NNE 13.8 mph22.2 kmh 29.88 in1011.9 mb - 0.02 in0.5 mm 0.29 in7.4 mm
07:50 AM 55.9°F13.3°C 52.1°F11.2°C 87% 12.7 mph N20.4 kmh N 16.1 mph25.9 kmh 29.88 in1011.9 mb - 0.02 in0.5 mm 0.29 in7.4 mm
08:00 AM 56.1°F13.4°C 52.3°F11.3°C 87% 10.4 mph N16.7 kmh N 11.5 mph18.5 kmh 29.88 in1011.9 mb - 0.00 in0.0 mm 0.29 in7.4 mm
08:10 AM 56.1°F13.4°C 52.3°F11.3°C 87% 10.4 mph NNE16.7 kmh NNE 13.8 mph22.2 kmh 29.88 in1011.9 mb - 0.00 in0.0 mm 0.29 in7.4 mm
08:20 AM 56.3°F13.5°C 52.5°F11.4°C 87% 11.5 mph NNE18.5 kmh NNE 12.7 mph20.4 kmh 29.88 in1011.9 mb - 0.02 in0.5 mm 0.32 in8.1 mm
08:30 AM 56.7°F13.7°C 52.8°F11.6°C 87% 11.5 mph N18.5 kmh N 13.8 mph22.2 kmh 29.88 in1011.9 mb - 0.02 in0.5 mm 0.32 in8.1 mm
08:50 AM 57.0°F13.9°C 53.2°F11.8°C 87% 8.1 mph NNE13.0 kmh NNE 13.8 mph22.2 kmh 29.91 in1012.9 mb - 0.02 in0.5 mm 0.32 in8.1 mm
09:00 AM 57.2°F14.0°C 53.4°F11.9°C 87% 12.7 mph NE20.4 kmh NE 15.0 mph24.1 kmh 29.91 in1012.9 mb - 0.02 in0.5 mm 0.32 in8.1 mm
09:10 AM 57.6°F14.2°C 53.7°F12.1°C 87% 9.2 mph NE14.8 kmh NE 11.5 mph18.5 kmh 29.91 in1012.9 mb - 0.02 in0.5 mm 0.32 in8.1 mm
09:20 AM 57.7°F14.3°C 53.9°F12.2°C 87% 12.7 mph NE20.4 kmh NE 15.0 mph24.1 kmh 29.91 in1012.9 mb - 0.02 in0.5 mm 0.32 in8.1 mm
09:30 AM 58.5°F14.7°C 54.6°F12.6°C 87% 12.7 mph NE20.4 kmh NE 15.0 mph24.1 kmh 29.91 in1012.9 mb - 0.00 in0.0 mm 0.32 in8.1 mm
09:40 AM 58.9°F14.9°C 54.7°F12.6°C 86% 9.2 mph NE14.8 kmh NE 15.0 mph24.1 kmh 29.91 in1012.9 mb - 0.00 in0.0 mm 0.32 in8.1 mm
09:50 AM 58.8°F14.9°C 54.3°F12.4°C 85% 10.4 mph NNE16.7 kmh NNE 12.7 mph20.4 kmh 29.88 in1011.9 mb - 0.00 in0.0 mm 0.32 in8.1 mm
10:00 AM 58.8°F14.9°C 54.0°F12.2°C 84% 10.4 mph NE16.7 kmh NE 12.7 mph20.4 kmh 29.91 in1012.9 mb - 0.00 in0.0 mm 0.32 in8.1 mm
10:10 AM 58.8°F14.9°C 54.0°F12.2°C 84% 10.4 mph NNE16.7 kmh NNE 11.5 mph18.5 kmh 29.91 in1012.9 mb - 0.00 in0.0 mm 0.32 in8.1 mm
10:20 AM 58.8°F14.9°C 53.7°F12.1°C 83% 11.5 mph NE18.5 kmh NE 16.1 mph25.9 kmh 29.91 in1012.9 mb - 0.00 in0.0 mm 0.32 in8.1 mm
10:30 AM 59.2°F15.1°C 53.7°F12.1°C 82% 10.4 mph NE16.7 kmh NE 12.7 mph20.4 kmh 29.91 in1012.9 mb - 0.00 in0.0 mm 0.32 in8.1 mm
10:40 AM 59.5°F15.3°C 54.0°F12.2°C 82% 9.2 mph NE14.8 kmh NE 16.1 mph25.9 kmh 29.91 in1012.9 mb - 0.00 in0.0 mm 0.32 in8.1 mm
10:50 AM 59.5°F15.3°C 53.3°F11.8°C 80% 12.7 mph NE20.4 kmh NE 15.0 mph24.1 kmh 29.91 in1012.9 mb - 0.00 in0.0 mm 0.32 in8.1 mm
11:00 AM 59.7°F15.4°C 53.5°F11.9°C 80% 9.2 mph NE14.8 kmh NE 10.4 mph16.7 kmh 29.91 in1012.9 mb - 0.00 in0.0 mm 0.32 in8.1 mm
11:10 AM 59.4°F15.2°C 52.6°F11.4°C 78% 10.4 mph NE16.7 kmh NE 15.0 mph24.1 kmh 29.91 in1012.9 mb - 0.00 in0.0 mm 0.32 in8.1 mm
11:20 AM 60.3°F15.7°C 53.0°F11.7°C 77% 9.2 mph NE14.8 kmh NE 11.5 mph18.5 kmh 29.91 in1012.9 mb - 0.00 in0.0 mm 0.32 in8.1 mm
11:30 AM 60.3°F15.7°C 52.3°F11.3°C 75% 10.4 mph N16.7 kmh N 16.1 mph25.9 kmh 29.91 in1012.9 mb - 0.00 in0.0 mm 0.32 in8.1 mm
11:40 AM 60.1°F15.6°C 51.8°F11.0°C 74% 12.7 mph NE20.4 kmh NE 15.0 mph24.1 kmh 29.91 in1012.9 mb - 0.00 in0.0 mm 0.32 in8.1 mm
11:50 AM 60.2°F15.7°C 51.8°F11.0°C 74% 10.4 mph NE16.7 kmh NE 13.8 mph22.2 kmh 29.91 in1012.9 mb - 0.00 in0.0 mm 0.32 in8.1 mm
12:00 PM 59.9°F15.5°C 51.6°F10.9°C 74% 11.5 mph NE18.5 kmh NE 13.8 mph22.2 kmh 29.94 in1013.9 mb - 0.00 in0.0 mm 0.32 in8.1 mm
12:10 PM 59.6°F15.3°C 51.3°F10.7°C 74% 11.5 mph NE18.5 kmh NE 13.8 mph22.2 kmh 29.94 in1013.9 mb - 0.00 in0.0 mm 0.32 in8.1 mm
12:20 PM 59.9°F15.5°C 51.6°F10.9°C 74% 10.4 mph NE16.7 kmh NE 16.1 mph25.9 kmh 29.94 in1013.9 mb - 0.00 in0.0 mm 0.32 in8.1 mm
12:30 PM 60.5°F15.8°C 51.8°F11.0°C 73% 10.4 mph NE16.7 kmh NE 12.7 mph20.4 kmh 29.94 in1013.9 mb - 0.00 in0.0 mm 0.32 in8.1 mm
12:40 PM 60.8°F16.0°C 51.7°F10.9°C 72% 8.1 mph NE13.0 kmh NE 10.4 mph16.7 kmh 29.94 in1013.9 mb - 0.00 in0.0 mm 0.32 in8.1 mm
12:50 PM 60.6°F15.9°C 51.2°F10.7°C 71% 10.4 mph NNE16.7 kmh NNE 11.5 mph18.5 kmh 29.94 in1013.9 mb - 0.00 in0.0 mm 0.32 in8.1 mm
01:00 PM 60.8°F16.0°C 51.3°F10.7°C 71% 8.1 mph NE13.0 kmh NE 10.4 mph16.7 kmh 29.97 in1014.9 mb - 0.00 in0.0 mm 0.32 in8.1 mm
01:10 PM 61.2°F16.2°C 51.7°F10.9°C 71% 9.2 mph NE14.8 kmh NE 11.5 mph18.5 kmh 29.97 in1014.9 mb - 0.00 in0.0 mm 0.32 in8.1 mm
01:20 PM 61.4°F16.3°C 51.6°F10.9°C 70% 9.2 mph ENE14.8 kmh ENE 11.5 mph18.5 kmh 29.97 in1014.9 mb - 0.00 in0.0 mm 0.32 in8.1 mm
01:30 PM 61.6°F16.4°C 51.8°F11.0°C 70% 6.9 mph NE11.1 kmh NE 6.9 mph11.1 kmh 29.97 in1014.9 mb - 0.00 in0.0 mm 0.32 in8.1 mm
01:40 PM 61.9°F16.6°C 51.6°F10.9°C 69% 6.9 mph ENE11.1 kmh ENE 8.1 mph13.0 kmh 29.97 in1014.9 mb - 0.00 in0.0 mm 0.32 in8.1 mm
01:50 PM 62.1°F16.7°C 51.9°F11.1°C 69% 3.5 mph ENE5.6 kmh ENE 5.8 mph9.3 kmh 29.97 in1014.9 mb - 0.00 in0.0 mm 0.32 in8.1 mm
02:00 PM 62.2°F16.8°C 51.9°F11.1°C 69% 6.9 mph ESE11.1 kmh ESE 9.2 mph14.8 kmh 29.97 in1014.9 mb - 0.00 in0.0 mm 0.32 in8.1 mm
02:10 PM 62.2°F16.8°C 51.1°F10.6°C 67% 8.1 mph E13.0 kmh E 10.4 mph16.7 kmh 29.97 in1014.9 mb - 0.00 in0.0 mm 0.32 in8.1 mm
02:20 PM 62.6°F17.0°C 50.7°F10.4°C 65% 9.2 mph E14.8 kmh E 11.5 mph18.5 kmh 29.97 in1014.9 mb - 0.00 in0.0 mm 0.32 in8.1 mm
02:30 PM 62.4°F16.9°C 50.1°F10.1°C 64% 9.2 mph E14.8 kmh E 10.4 mph16.7 kmh 29.97 in1014.9 mb - 0.00 in0.0 mm 0.32 in8.1 mm
02:40 PM 61.7°F16.5°C 49.0°F9.4°C 63% 11.5 mph ESE18.5 kmh ESE 13.8 mph22.2 kmh 29.97 in1014.9 mb - 0.00 in0.0 mm 0.32 in8.1 mm
02:50 PM 61.0°F16.1°C 48.7°F9.3°C 64% 6.9 mph E11.1 kmh E 8.1 mph13.0 kmh 29.97 in1014.9 mb - 0.00 in0.0 mm 0.32 in8.1 mm
03:00 PM 60.5°F15.8°C 48.7°F9.3°C 65% 8.1 mph E13.0 kmh E 10.4 mph16.7 kmh 29.97 in1014.9 mb - 0.00 in0.0 mm 0.32 in8.1 mm
03:10 PM 60.3°F15.7°C 48.4°F9.1°C 65% 8.1 mph NE13.0 kmh NE 9.2 mph14.8 kmh 29.97 in1014.9 mb - 0.00 in0.0 mm 0.32 in8.1 mm
03:20 PM 59.9°F15.5°C 48.1°F8.9°C 65% 8.1 mph E13.0 kmh E 8.1 mph13.0 kmh 29.97 in1014.9 mb - 0.00 in0.0 mm 0.32 in8.1 mm
03:30 PM 59.7°F15.4°C 47.9°F8.8°C 65% 5.8 mph NE9.3 kmh NE 6.9 mph11.1 kmh 29.97 in1014.9 mb - 0.00 in0.0 mm 0.32 in8.1 mm
03:40 PM 59.9°F15.5°C 48.5°F9.2°C 66% 4.6 mph E7.4 kmh E 5.8 mph9.3 kmh 29.97 in1014.9 mb - 0.00 in0.0 mm 0.32 in8.1 mm
03:50 PM 59.7°F15.4°C 48.3°F9.1°C 66% 5.8 mph E9.3 kmh E 6.9 mph11.1 kmh 29.97 in1014.9 mb - 0.00 in0.0 mm 0.32 in8.1 mm
04:00 PM 59.7°F15.4°C 48.7°F9.3°C 67% 5.8 mph E9.3 kmh E 5.8 mph9.3 kmh 30.00 in1015.9 mb - 0.00 in0.0 mm 0.32 in8.1 mm
04:10 PM 59.5°F15.3°C 49.0°F9.4°C 68% 5.8 mph ENE9.3 kmh ENE 6.9 mph11.1 kmh 30.00 in1015.9 mb - 0.00 in0.0 mm 0.32 in8.1 mm
04:20 PM 59.2°F15.1°C 49.0°F9.4°C 69% 5.8 mph E9.3 kmh E 8.1 mph13.0 kmh 30.00 in1015.9 mb - 0.00 in0.0 mm 0.32 in8.1 mm
04:30 PM 58.8°F14.9°C 48.7°F9.3°C 69% 4.6 mph E7.4 kmh E 4.6 mph7.4 kmh 30.00 in1015.9 mb - 0.00 in0.0 mm 0.32 in8.1 mm
04:40 PM 58.5°F14.7°C 48.7°F9.3°C 70% 3.5 mph E5.6 kmh E 4.6 mph7.4 kmh 30.00 in1015.9 mb - 0.00 in0.0 mm 0.32 in8.1 mm
04:50 PM 58.3°F14.6°C 48.9°F9.4°C 71% 3.5 mph SE5.6 kmh SE 4.6 mph7.4 kmh 30.03 in1016.9 mb - 0.00 in0.0 mm 0.32 in8.1 mm
05:00 PM 58.1°F14.5°C 48.7°F9.3°C 71% 3.5 mph E5.6 kmh E 4.6 mph7.4 kmh 30.03 in1016.9 mb - 0.02 in0.5 mm 0.33 in8.4 mm
05:10 PM 57.7°F14.3°C 48.4°F9.1°C 71% Calm Calm 1.2 mph1.9 kmh 30.03 in1016.9 mb - 0.02 in0.5 mm 0.33 in8.4 mm
05:20 PM 57.7°F14.3°C 48.8°F9.3°C 72% 2.3 mph E3.7 kmh E 3.5 mph5.6 kmh 30.03 in1016.9 mb - 0.02 in0.5 mm 0.33 in8.4 mm
05:30 PM 57.7°F14.3°C 48.8°F9.3°C 72% 2.3 mph E3.7 kmh E 2.3 mph3.7 kmh 30.03 in1016.9 mb - 0.02 in0.5 mm 0.33 in8.4 mm
05:40 PM 57.6°F14.2°C 48.6°F9.2°C 72% 1.2 mph SE1.9 kmh SE 2.3 mph3.7 kmh 30.03 in1016.9 mb - 0.03 in0.8 mm 0.35 in8.9 mm
05:50 PM 57.6°F14.2°C 49.0°F9.4°C 73% 3.5 mph E5.6 kmh E 3.5 mph5.6 kmh 30.03 in1016.9 mb - 0.03 in0.8 mm 0.35 in8.9 mm
06:00 PM 57.4°F14.1°C 48.8°F9.3°C 73% 3.5 mph E5.6 kmh E 4.6 mph7.4 kmh 30.03 in1016.9 mb - 0.02 in0.5 mm 0.35 in8.9 mm
06:10 PM 56.9°F13.8°C 48.7°F9.3°C 74% 3.5 mph SE5.6 kmh SE 4.6 mph7.4 kmh 30.03 in1016.9 mb - 0.02 in0.5 mm 0.35 in8.9 mm
06:20 PM 56.7°F13.7°C 48.5°F9.2°C 74% 3.5 mph SE5.6 kmh SE 3.5 mph5.6 kmh 30.03 in1016.9 mb - 0.02 in0.5 mm 0.35 in8.9 mm
06:30 PM 56.5°F13.6°C 48.3°F9.1°C 74% 4.6 mph E7.4 kmh E 4.6 mph7.4 kmh 30.03 in1016.9 mb - 0.03 in0.8 mm 0.36 in9.1 mm
06:40 PM 55.9°F13.3°C 48.1°F8.9°C 75% 3.5 mph E5.6 kmh E 4.6 mph7.4 kmh 30.03 in1016.9 mb - 0.02 in0.5 mm 0.36 in9.1 mm
06:50 PM 55.9°F13.3°C 48.1°F8.9°C 75% 3.5 mph E5.6 kmh E 3.5 mph5.6 kmh 30.03 in1016.9 mb - 0.02 in0.5 mm 0.36 in9.1 mm
07:00 PM 55.4°F13.0°C 47.6°F8.7°C 75% 3.5 mph SE5.6 kmh SE 4.6 mph7.4 kmh 30.03 in1016.9 mb - 0.02 in0.5 mm 0.36 in9.1 mm
07:10 PM 55.2°F12.9°C 47.8°F8.8°C 76% 2.3 mph E3.7 kmh E 2.3 mph3.7 kmh 30.03 in1016.9 mb - 0.02 in0.5 mm 0.36 in9.1 mm
07:20 PM 55.2°F12.9°C 47.8°F8.8°C 76% 3.5 mph SE5.6 kmh SE 3.5 mph5.6 kmh 30.00 in1015.9 mb - 0.02 in0.5 mm 0.36 in9.1 mm
07:30 PM 54.9°F12.7°C 47.9°F8.8°C 77% 1.2 mph SE1.9 kmh SE 2.3 mph3.7 kmh 30.03 in1016.9 mb - 0.02 in0.5 mm 0.36 in9.1 mm
07:40 PM 54.7°F12.6°C 47.6°F8.7°C 77% 3.5 mph SE5.6 kmh SE 3.5 mph5.6 kmh 30.03 in1016.9 mb - 0.00 in0.0 mm 0.36 in9.1 mm
07:50 PM 54.8°F12.7°C 47.7°F8.7°C 77% 1.2 mph E1.9 kmh E 2.3 mph3.7 kmh 30.03 in1016.9 mb - 0.00 in0.0 mm 0.36 in9.1 mm
08:00 PM 54.7°F12.6°C 48.0°F8.9°C 78% 2.3 mph E3.7 kmh E 2.3 mph3.7 kmh 30.03 in1016.9 mb - 0.02 in0.5 mm 0.38 in9.7 mm
08:10 PM 54.7°F12.6°C 48.0°F8.9°C 78% 1.2 mph ESE1.9 kmh ESE 1.2 mph1.9 kmh 30.03 in1016.9 mb - 0.02 in0.5 mm 0.38 in9.7 mm
08:20 PM 54.5°F12.5°C 47.8°F8.8°C 78% Calm Calm -- 30.03 in1016.9 mb - 0.02 in0.5 mm 0.38 in9.7 mm
08:30 PM 54.5°F12.5°C 48.1°F8.9°C 79% Calm Calm -- 30.03 in1016.9 mb - 0.02 in0.5 mm 0.38 in9.7 mm
08:40 PM 54.5°F12.5°C 48.1°F8.9°C 79% Calm Calm -- 30.03 in1016.9 mb - 0.02 in0.5 mm 0.38 in9.7 mm
08:50 PM 54.7°F12.6°C 48.6°F9.2°C 80% Calm Calm -- 30.03 in1016.9 mb - 0.02 in0.5 mm 0.38 in9.7 mm
09:00 PM 54.5°F12.5°C 48.5°F9.2°C 80% Calm Calm -- 30.03 in1016.9 mb - 0.02 in0.5 mm 0.38 in9.7 mm
09:10 PM 54.7°F12.6°C 48.6°F9.2°C 80% 2.3 mph SW3.7 kmh SW 3.5 mph5.6 kmh 30.03 in1016.9 mb - 0.00 in0.0 mm 0.38 in9.7 mm
09:20 PM 54.7°F12.6°C 48.6°F9.2°C 80% 2.3 mph WSW3.7 kmh WSW 2.3 mph3.7 kmh 30.03 in1016.9 mb - 0.00 in0.0 mm 0.38 in9.7 mm
09:30 PM 54.5°F12.5°C 48.8°F9.3°C 81% 2.3 mph WSW3.7 kmh WSW 3.5 mph5.6 kmh 30.03 in1016.9 mb - 0.00 in0.0 mm 0.38 in9.7 mm
09:40 PM 54.5°F12.5°C 48.8°F9.3°C 81% 2.3 mph WSW3.7 kmh WSW 3.5 mph5.6 kmh 30.03 in1016.9 mb - 0.00 in0.0 mm 0.38 in9.7 mm
09:50 PM 54.5°F12.5°C 49.1°F9.5°C 82% 2.3 mph WSW3.7 kmh WSW 3.5 mph5.6 kmh 30.03 in1016.9 mb - 0.00 in0.0 mm 0.38 in9.7 mm
10:00 PM 54.5°F12.5°C 49.1°F9.5°C 82% 3.5 mph WSW5.6 kmh WSW 4.6 mph7.4 kmh 30.03 in1016.9 mb - 0.00 in0.0 mm 0.38 in9.7 mm
10:10 PM 54.5°F12.5°C 49.1°F9.5°C 82% 3.5 mph WSW5.6 kmh WSW 4.6 mph7.4 kmh 30.03 in1016.9 mb - 0.00 in0.0 mm 0.38 in9.7 mm
10:20 PM 54.5°F12.5°C 49.4°F9.7°C 83% 2.3 mph WSW3.7 kmh WSW 3.5 mph5.6 kmh 30.06 in1017.9 mb - 0.00 in0.0 mm 0.38 in9.7 mm
10:30 PM 54.3°F12.4°C 49.3°F9.6°C 83% 3.5 mph WSW5.6 kmh WSW 3.5 mph5.6 kmh 30.06 in1017.9 mb - 0.00 in0.0 mm 0.38 in9.7 mm
10:40 PM 54.3°F12.4°C 49.3°F9.6°C 83% 3.5 mph W5.6 kmh W 4.6 mph7.4 kmh 30.06 in1017.9 mb - 0.00 in0.0 mm 0.38 in9.7 mm
10:50 PM 54.3°F12.4°C 49.3°F9.6°C 83% 2.3 mph W3.7 kmh W 3.5 mph5.6 kmh 30.06 in1017.9 mb - 0.00 in0.0 mm 0.38 in9.7 mm
11:00 PM 54.3°F12.4°C 49.3°F9.6°C 83% Calm Calm 1.2 mph1.9 kmh 30.03 in1016.9 mb - 0.00 in0.0 mm 2.30 in58.4 mm
11:10 PM 54.3°F12.4°C 49.3°F9.6°C 83% 3.5 mph W5.6 kmh W 4.6 mph7.4 kmh 30.03 in1016.9 mb - 0.00 in0.0 mm 2.30 in58.4 mm
11:20 PM 54.3°F12.4°C 49.3°F9.6°C 83% 1.2 mph WSW1.9 kmh WSW 1.2 mph1.9 kmh 30.06 in1017.9 mb - 0.00 in0.0 mm 2.30 in58.4 mm
11:30 PM 54.3°F12.4°C 49.3°F9.6°C 83% 3.5 mph W5.6 kmh W 3.5 mph5.6 kmh 30.03 in1016.9 mb - 0.00 in0.0 mm 2.30 in58.4 mm
11:40 PM 54.5°F12.5°C 49.8°F9.9°C 84% 2.3 mph W3.7 kmh W 3.5 mph5.6 kmh 30.03 in1016.9 mb - 0.00 in0.0 mm 2.30 in58.4 mm
11:50 PM 54.3°F12.4°C 49.6°F9.8°C 84% 3.5 mph W5.6 kmh W 3.5 mph5.6 kmh 30.06 in1017.9 mb - 0.00 in0.0 mm 2.30 in58.4 mm